Terminal Aerodrome Forecast
Issued by NWS North Platte, NE

Home | Current Version | Previous Version | Graphics & Text | Print | Product List | Glossary On
Versions: 1 2 3 4 5 6 7 8 9 10 11 12
222
FTUS43 KLBF 211120
TAFVTN
TAF
KVTN 211120Z 2112/2212 11009KT P6SM SCT100 BKN150
     FM211600 11011KT P6SM BKN150
     FM212300 10010KT P6SM SCT150
     FM220300 VRB06KT P6SM SCT200
     FM220800 VRB06KT P6SM SKC=

USA.gov is the U.S. government's official web portal to all federal, state and local government web resources and services.